• Join FlightAware (Why Join?)
  • Login
  • US Flag 
03:57PM EDT


 

Airport Tracker/Info


-or-


 

Live Flight TrackerFlight Track Log ✈ N727NE ✈ 29-Apr-2013 ✈ 3W9 - KMGY

Flight Track Log - Related Links

Times and Time Zones

All times are in EDT time to prevent confusion due to time zone crossing. See the N727NE flight status page for this flight to view local times or setup timezone preferences in your user account.

Time Position Orientation Groundspeed Altitude Reporting Facility
EDT Latitude Longitude Course Direction KTS MPH feet Rate Location/Type
04:33PM 41.5069 -82.9039 202° Southwest 118 136 4,700  Level Cleveland Center
04:33PM 41.4922 -82.9117 202° Southwest 115 132 5,000 540 Climbing Cleveland Center
04:34PM 41.4628 -82.9272 202° Southwest 116 133 5,600 540 Climbing Cleveland Center
04:35PM 41.4331 -82.9483 208° Southwest 116 133 6,100 540 Climbing Cleveland Center
04:36PM 41.4056 -82.9694 210° Southwest 122 140 6,700 540 Climbing Cleveland Center
04:37PM 41.3781 -82.9906 210° Southwest 122 140 7,200 480 Climbing Cleveland Center
04:38PM 41.3464 -83.0117 207° Southwest 122 140 7,700 420 Climbing Cleveland Center
04:39PM 41.3144 -83.0353 209° Southwest 125 144 8,100 180 Climbing Cleveland Center
04:40PM 41.2828 -83.0589 209° Southwest 140 161 8,100  Level Cleveland Center
04:41PM 41.2467 -83.0853 209° Southwest 144 166 8,100 -60 Level Cleveland Center
04:42PM 41.2086 -83.1086 205° Southwest 144 166 8,000 -60 Descending Cleveland Center
04:43PM 41.1747 -83.1322 208° Southwest 142 163 8,000  Level Cleveland Center
04:44PM 41.1431 -83.1558 209° Southwest 140 161 8,100  Climbing Cleveland Center
04:45PM 41.1111 -83.1819 212° Southwest 136 157 8,100  Level Cleveland Center
04:46PM 41.0753 -83.2056 206° Southwest 137 158 8,100 -60 Level Cleveland Center
04:47PM 41.0392 -83.2289 206° Southwest 139 160 8,000  Descending Cleveland Center
04:48PM 41.0072 -83.2550 212° Southwest 137 158 8,100  Climbing Cleveland Center
04:49PM 40.9733 -83.2811 210° Southwest 138 159 8,100  Level Cleveland Center
04:50PM 40.9394 -83.3044 207° Southwest 137 158 8,100 -60 Level Cleveland Center
04:51PM 40.9033 -83.3278 206° Southwest 139 160 8,000 -60 Descending Cleveland Center
04:52PM 40.8717 -83.3483 206° Southwest 138 159 8,000  Level Cleveland Center
04:54PM 40.8328 -83.3749 207° Southwest  Level FlightAware Approximate
04:56PM 40.7475 -83.4331 207° Southwest 138 159 8,100  Level Indianapolis Center
04:57PM 40.7139 -83.4578 209° Southwest 138 159 8,100  Level Indianapolis Center
04:58PM 40.6792 -83.4825 208° Southwest 140 161 8,100 -60 Level Indianapolis Center
04:59PM 40.6439 -83.5069 208° Southwest 141 162 8,000 -60 Descending Indianapolis Center
05:00PM 40.6094 -83.5314 208° Southwest 140 161 8,000  Level Indianapolis Center
05:01PM 40.6362 -83.5088 207° Southwest  Level FlightAware Approximate
05:01PM 40.5744 -83.5556 208° Southwest 141 162 8,000  Level Indianapolis Center
05:02PM 40.5439 -83.5789 210° Southwest 141 162 8,000  Level Indianapolis Center
05:02PM 40.5392 -83.5794 185° South 141 162 8,000 240 Level Indianapolis Center
05:03PM 40.5153 -83.5972 210° Southwest 143 165 8,200 60 Climbing Indianapolis Center
05:03PM 40.4983 -83.6089 208° Southwest 141 162 8,100  Descending Indianapolis Center
05:04PM 40.4800 -83.6231 210° Southwest 142 163 8,200  Climbing Indianapolis Center
05:04PM 40.4636 -83.6339 207° Southwest 141 162 8,100  Descending Indianapolis Center
05:05PM 40.4447 -83.6486 211° Southwest 141 162 8,200  Climbing Indianapolis Center
05:05PM 40.4278 -83.6586 204° Southwest 142 163 8,100  Descending Indianapolis Center
05:06PM 40.4050 -83.6767 211° Southwest 143 165 8,200  Climbing Indianapolis Center
05:06PM 40.3928 -83.6828 201° Southwest 142 163 8,100  Descending Indianapolis Center
05:07PM 40.3697 -83.6994 209° Southwest 140 161 8,200  Climbing Indianapolis Center
05:07PM 40.3569 -83.7083 208° Southwest 143 165 8,100  Descending Indianapolis Center
05:08PM 40.3319 -83.7275 210° Southwest 143 165 8,200  Climbing Indianapolis Center
05:08PM 40.3222 -83.7331 204° Southwest 143 165 8,100  Descending Indianapolis Center
05:09PM 40.3014 -83.7456 205° Southwest 145 167 8,200  Climbing Indianapolis Center
05:09PM 40.2858 -83.7564 208° Southwest 143 165 8,100 -120 Descending Indianapolis Center
05:10PM 40.2658 -83.7711 209° Southwest 144 166 8,100 -120 Level Indianapolis Center
05:10PM 40.2497 -83.7811 205° Southwest 144 166 8,000  Descending Indianapolis Center
05:11PM 40.2306 -83.7967 212° Southwest 144 166 8,100  Climbing Indianapolis Center
05:11PM 40.2083 -83.8100 205° Southwest 144 166 8,000  Descending Indianapolis Center
05:12PM 40.1953 -83.8194 209° Southwest 142 163 8,100 -120 Climbing Indianapolis Center
05:12PM 40.1736 -83.8358 210° Southwest 143 165 7,900 -120 Descending Indianapolis Center
05:13PM 40.1553 -83.8500 211° Southwest 142 163 8,000  Climbing Indianapolis Center
05:13PM 40.1400 -83.8614 210° Southwest 142 163 7,900  Descending Indianapolis Center
05:14PM 40.1244 -83.8706 204° Southwest 141 162 8,000 60 Climbing Indianapolis Center
05:14PM 40.1044 -83.8847 208° Southwest 141 162 8,000 60 Level Indianapolis Center
05:15PM 40.0892 -83.8933 203° Southwest 140 161 8,100  Climbing Indianapolis Center
05:15PM 40.0694 -83.9078 209° Southwest 141 162 8,000 -240 Descending Indianapolis Center
05:16PM 40.0336 -83.9306 206° Southwest 141 162 7,700 -420 Descending Indianapolis Center
05:18PM 39.9872 -83.9647 209° Southwest 145 167 7,100 -300 Descending Indianapolis Center
05:19PM 39.9592 -83.9850 209° Southwest 141 162 7,100  Level Indianapolis Center
05:20PM 39.9275 -84.0044 205° Southwest 133 153 7,100  Level Indianapolis Center
05:21PM 39.8950 -84.0264 207° Southwest 130 150 7,100  Level Indianapolis Center
05:21PM 39.8814 -84.0353 207° Southwest 130 150 7,100 -420 Level Indianapolis Center
05:22PM 39.8617 -84.0489 208° Southwest 132 152 6,700 -540 Descending Indianapolis Center
05:22PM 39.8439 -84.0603 206° Southwest 140 161 6,600 -600 Descending Indianapolis Center
05:23PM 39.8267 -84.0733 210° Southwest 137 158 6,100 -660 Descending Indianapolis Center
05:23PM 39.8128 -84.0808 203° Southwest 147 169 6,000 -720 Descending Indianapolis Center
05:24PM 39.7908 -84.0961 208° Southwest 140 161 5,400 -660 Descending Indianapolis Center
05:24PM 39.7731 -84.1081 207° Southwest 143 165 5,300 -540 Descending Indianapolis Center
05:25PM 39.7511 -84.1214 205° Southwest 142 163 4,900 -420 Descending Indianapolis Center
05:26PM 39.7153 -84.1447 207° Southwest 141 162 4,600 -300 Descending Indianapolis Center